Etusivu
METAR-TAF:

METAR-TAF

Lentoasemat :

Lontoo Biggin Hill, Englanti

Leveyspiiri: 51-19N, Pituuspiiri: 000-02E, korkeus merenpinnasta: 183 m

Tämänhetkinen sää

Tämä raportti tehtiin 7 tuntia ja 35 minuuttia sitten, kello 22.20 UTC
Tuuli 10 kn idästä/kaakosta
Lämpötila 3°C
Kosteus 93%
Ilmanpaine 1008 hPa
Näkyvyys 10 km tai enemmän
Hajonneita pilviä 1600 ft:n korkeudessa

METAR: EGKB 202220Z 12010KT 9999 BKN016 03/02 Q1008

Aika: 05:55 (05:55 UTC)

Sääennuste

Tämä raportti tehtiin 9 tuntia ja 55 minuuttia sitten, kello 20.00 UTC
Ennuste voimassa 20. päivästä klo 21 UTC - 20. päivään klo 23 UTC
Tuuli 9 kn idästä/kaakosta
Näkyvyys 10 km tai enemmän
Hajanaisia pilviä 1500 ft:n korkeudessa
Todennäköisyys 30% :
Ajoittain
20. päivästä klo 21 UTC - 20. päivään klo 23 UTC
Hajonneita pilviä 1200 ft:n korkeudessa

TAF: EGKB 202000Z 2021/2023 12009KT 9999 SCT015 PROB30 TEMPO 2021/2023 BKN012

Säähavainnot ja -ennusteet yli 4000 lentoasemalta (METAR- ja TAF-raportit).

Käytössä olevat sääasemat on merkitty karttaan keltaisilla ja punaisilla pisteillä.

Aseta hiiri pisteen päälle nähdäksesi sääaseman nimen.

Klikkaa sitten nähdäksesi säähavainnot ja -ennusteet.

Kartan vaihtaminen: klikkaa mustalla rastilla varustettuja vihreitä pisteitä, niin voit zoomata sisään; viivalla varustettua vihreää pistettä, niin voit zoomata ulos tai vihreitä nuolia, niin pääset viereisille kartoille.


METAR-TAF: